createdAt,value
2018-04-08T00:00:18.449Z,99.90
2018-04-08T00:02:54.123Z,99.90
2018-04-08T00:05:29.953Z,99.90
2018-04-08T00:08:06.528Z,99.90
2018-04-08T00:10:41.764Z,99.90
2018-04-08T00:13:16.799Z,99.90
2018-04-08T00:15:51.843Z,99.90
2018-04-08T00:18:26.676Z,99.90
2018-04-08T00:21:02.519Z,99.90
2018-04-08T00:23:37.656Z,99.90
2018-04-08T00:26:13.512Z,99.90
2018-04-08T00:28:48.444Z,99.90
2018-04-08T00:31:24.921Z,99.90
2018-04-08T00:34:00.155Z,99.90
2018-04-08T00:36:36.826Z,99.90
2018-04-08T00:39:12.274Z,99.90
2018-04-08T00:41:47.919Z,99.90
2018-04-08T00:44:22.955Z,99.90
2018-04-08T00:46:58.822Z,99.90
2018-04-08T00:49:34.056Z,99.90
2018-04-08T00:52:10.325Z,99.90
2018-04-08T00:54:45.440Z,99.90
2018-04-08T00:57:21.010Z,99.90
2018-04-08T00:59:56.662Z,99.90
2018-04-08T01:02:32.305Z,99.90
2018-04-08T01:05:07.334Z,99.90
2018-04-08T01:07:42.166Z,99.90
2018-04-08T01:10:16.997Z,99.90
2018-04-08T01:12:51.632Z,99.90
2018-04-08T01:15:26.451Z,99.90
2018-04-08T01:18:01.281Z,99.90
2018-04-08T01:20:36.115Z,99.90
2018-04-08T01:23:11.354Z,99.90
2018-04-08T01:25:46.388Z,99.90
2018-04-08T01:28:21.432Z,99.90
2018-04-08T01:30:57.071Z,99.90
2018-04-08T01:33:32.311Z,99.90
2018-04-08T01:36:07.345Z,99.90
2018-04-08T01:38:49.084Z,99.90
2018-04-08T01:41:26.121Z,99.90
2018-04-08T01:44:01.256Z,99.90
2018-04-08T01:46:37.008Z,99.90
2018-04-08T01:49:12.760Z,99.90
2018-04-08T01:51:47.587Z,99.90
2018-04-08T01:54:23.241Z,99.90
2018-04-08T01:56:58.275Z,99.90
2018-04-08T01:59:33.523Z,99.90
2018-04-08T02:02:08.651Z,99.90
2018-04-08T02:04:43.689Z,99.90
2018-04-08T02:07:19.335Z,99.90
2018-04-08T02:09:54.784Z,99.90
2018-04-08T02:12:29.816Z,99.90
2018-04-08T02:15:05.464Z,99.90
2018-04-08T02:17:40.603Z,99.90
2018-04-08T02:20:16.040Z,99.90
2018-04-08T02:22:51.493Z,99.90
2018-04-08T02:25:26.530Z,99.90
2018-04-08T02:28:02.281Z,99.90
2018-04-08T02:30:38.030Z,99.90
2018-04-08T02:33:13.681Z,99.90
2018-04-08T02:35:48.523Z,99.90
2018-04-08T02:38:23.854Z,99.90
2018-04-08T02:40:59.706Z,99.90
2018-04-08T02:43:34.741Z,99.90
2018-04-08T02:46:09.777Z,99.90
2018-04-08T02:48:45.640Z,99.90
2018-04-08T02:51:21.856Z,99.90
2018-04-08T02:53:56.724Z,99.90
2018-04-08T02:56:31.778Z,99.90
2018-04-08T02:59:07.701Z,99.90
2018-04-08T03:01:43.721Z,99.90
2018-04-08T03:04:19.019Z,99.90
2018-04-08T03:06:54.873Z,99.90
2018-04-08T03:09:30.872Z,99.90
2018-04-08T03:12:06.484Z,99.90
2018-04-08T03:14:41.626Z,99.90
2018-04-08T03:17:16.859Z,99.90
2018-04-08T03:19:52.709Z,99.90
2018-04-08T03:22:28.638Z,99.90
2018-04-08T03:25:03.565Z,99.90
2018-04-08T03:27:39.453Z,99.90
2018-04-08T03:30:14.589Z,99.90
2018-04-08T03:32:51.278Z,99.90
2018-04-08T03:35:28.047Z,99.90
2018-04-08T03:38:03.090Z,99.90
2018-04-08T03:40:38.531Z,99.90
2018-04-08T03:43:14.375Z,99.90
2018-04-08T03:45:50.126Z,99.90
2018-04-08T03:48:25.160Z,99.90
2018-04-08T03:51:00.591Z,99.90
2018-04-08T03:53:36.615Z,99.90
2018-04-08T03:56:12.012Z,99.90
2018-04-08T03:58:47.457Z,99.90
2018-04-08T04:01:23.319Z,99.90
2018-04-08T04:03:59.984Z,99.90
2018-04-08T04:06:35.437Z,99.90
2018-04-08T04:09:11.148Z,99.90
2018-04-08T04:11:47.954Z,99.90
2018-04-08T04:14:24.521Z,99.90
2018-04-08T04:16:59.732Z,99.90
2018-04-08T04:19:47.704Z,99.90
2018-04-08T04:22:35.028Z,99.90
2018-04-08T04:25:25.623Z,99.90
2018-04-08T04:28:01.016Z,99.90
2018-04-08T04:30:36.312Z,99.90
2018-04-08T04:33:11.554Z,99.90
2018-04-08T04:35:46.995Z,99.90
2018-04-08T04:38:22.438Z,99.90
2018-04-08T04:40:57.885Z,99.90
2018-04-08T04:43:33.327Z,99.90
2018-04-08T04:46:08.570Z,99.90
2018-04-08T04:48:44.419Z,99.90
2018-04-08T04:51:20.278Z,99.90
2018-04-08T04:53:55.517Z,99.90
2018-04-08T04:56:30.555Z,99.90
2018-04-08T04:59:06.416Z,99.90
2018-04-08T05:01:41.558Z,99.90
2018-04-08T05:04:16.373Z,99.90
2018-04-08T05:06:51.406Z,99.90
2018-04-08T05:09:26.449Z,99.90
2018-04-08T05:12:01.682Z,99.90
2018-04-08T05:14:37.337Z,99.90
2018-04-08T05:17:13.601Z,99.90
2018-04-08T05:19:49.744Z,99.90
2018-04-08T05:22:24.692Z,99.90
2018-04-08T05:24:59.826Z,99.90
2018-04-08T05:27:36.406Z,99.90
2018-04-08T05:30:11.454Z,99.90
2018-04-08T05:32:46.683Z,99.90
2018-04-08T05:35:21.506Z,99.90
2018-04-08T05:37:56.955Z,99.90
2018-04-08T05:40:32.703Z,99.90
2018-04-08T05:43:08.356Z,99.90
2018-04-08T05:45:43.384Z,99.90
2018-04-08T05:48:18.830Z,99.90
2018-04-08T05:50:53.660Z,99.90
2018-04-08T05:53:28.694Z,99.90
2018-04-08T05:56:03.943Z,99.90
2018-04-08T05:58:39.378Z,99.90
2018-04-08T06:01:14.621Z,99.90
2018-04-08T06:03:50.956Z,99.90
2018-04-08T06:06:26.431Z,99.90
2018-04-08T06:09:01.427Z,99.90
2018-04-08T06:11:36.503Z,99.90
2018-04-08T06:14:11.739Z,99.90
2018-04-08T06:16:46.992Z,99.90
2018-04-08T06:19:21.809Z,99.90
2018-04-08T06:21:56.844Z,99.90
2018-04-08T06:24:31.885Z,99.90
2018-04-08T06:27:07.540Z,99.90
2018-04-08T06:29:42.776Z,99.90
2018-04-08T06:32:17.604Z,99.90
2018-04-08T06:34:52.434Z,99.90
2018-04-08T06:37:29.515Z,99.90
2018-04-08T06:40:04.448Z,99.90
2018-04-08T06:42:40.302Z,99.90
2018-04-08T06:45:15.338Z,99.90
2018-04-08T06:47:51.389Z,99.90
2018-04-08T06:50:26.843Z,99.90
2018-04-08T06:53:02.284Z,99.90
2018-04-08T06:55:37.217Z,99.90
2018-04-08T06:58:12.355Z,99.90
2018-04-08T07:00:47.493Z,99.90
2018-04-08T07:03:22.427Z,99.90
2018-04-08T07:05:57.462Z,99.90
2018-04-08T07:08:32.496Z,99.90
2018-04-08T07:11:07.638Z,99.90
2018-04-08T07:13:42.872Z,99.90
2018-04-08T07:16:17.910Z,99.90
2018-04-08T07:18:53.149Z,99.90
2018-04-08T07:21:28.182Z,99.90
2018-04-08T07:24:03.628Z,99.90
2018-04-08T07:26:38.674Z,99.90
2018-04-08T07:29:13.906Z,99.90
2018-04-08T07:31:49.150Z,99.90
2018-04-08T07:34:23.869Z,99.90
2018-04-08T07:36:59.723Z,99.90
2018-04-08T07:39:35.172Z,99.90
2018-04-08T07:42:10.203Z,99.90
2018-04-08T07:44:46.062Z,99.90
2018-04-08T07:47:21.910Z,99.90
2018-04-08T07:49:57.166Z,99.90
2018-04-08T07:52:32.799Z,99.90
2018-04-08T07:55:08.558Z,99.90
2018-04-08T07:57:43.382Z,99.90
2018-04-08T08:00:19.031Z,99.90
2018-04-08T08:02:54.681Z,99.90
2018-04-08T08:05:31.563Z,99.90
2018-04-08T08:08:06.391Z,99.90
2018-04-08T08:10:41.219Z,99.90
2018-04-08T08:13:16.260Z,99.90
2018-04-08T08:15:51.193Z,99.90
2018-04-08T08:18:26.174Z,99.90
2018-04-08T08:21:01.263Z,99.90
2018-04-08T08:23:36.926Z,99.90
2018-04-08T08:26:12.762Z,99.90
2018-04-08T08:28:48.618Z,99.90
2018-04-08T08:31:24.470Z,99.90
2018-04-08T08:33:59.308Z,99.90
2018-04-08T08:36:34.233Z,99.90
2018-04-08T08:39:10.702Z,99.90
2018-04-08T08:41:45.788Z,99.90
2018-04-08T08:44:20.566Z,99.90
2018-04-08T08:46:55.604Z,99.90
2018-04-08T08:49:30.397Z,99.90
2018-04-08T08:52:05.264Z,99.90
2018-04-08T08:54:40.548Z,99.90
2018-04-08T08:57:15.848Z,99.90
2018-04-08T08:59:51.085Z,99.90
2018-04-08T09:02:26.429Z,99.90
2018-04-08T09:05:01.259Z,99.90
2018-04-08T09:07:36.089Z,99.90
2018-04-08T09:10:11.436Z,99.90
2018-04-08T09:12:47.591Z,99.90
2018-04-08T09:15:23.445Z,99.90
2018-04-08T09:17:58.276Z,99.90
2018-04-08T09:20:36.205Z,99.90
2018-04-08T09:23:14.902Z,99.90
2018-04-08T09:25:51.124Z,99.90
2018-04-08T09:28:27.224Z,99.90
2018-04-08T09:31:02.465Z,99.90
2018-04-08T09:33:37.498Z,99.90
2018-04-08T09:36:12.497Z,99.90
2018-04-08T09:38:48.392Z,99.90
2018-04-08T09:41:24.040Z,99.90
2018-04-08T09:43:59.694Z,99.90
2018-04-08T09:46:34.725Z,99.90
2018-04-08T09:49:10.682Z,99.90
2018-04-08T09:51:45.722Z,99.90
2018-04-08T09:54:20.543Z,99.90
2018-04-08T09:56:55.786Z,99.90
2018-04-08T09:59:31.006Z,99.90
2018-04-08T10:02:12.205Z,99.90
2018-04-08T10:04:47.243Z,99.90
2018-04-08T10:07:22.477Z,99.90
2018-04-08T10:09:57.411Z,99.90
2018-04-08T10:12:33.470Z,99.90
2018-04-08T10:15:08.927Z,99.90
2018-04-08T10:17:43.689Z,99.90
2018-04-08T10:20:18.358Z,99.90
2018-04-08T10:22:53.291Z,99.90
2018-04-08T10:25:28.953Z,99.90
2018-04-08T10:28:04.038Z,99.90
2018-04-08T10:30:39.022Z,99.90
2018-04-08T10:33:13.880Z,99.90
2018-04-08T10:35:48.542Z,99.90
2018-04-08T10:38:23.627Z,99.90
2018-04-08T10:40:58.478Z,99.90
2018-04-08T10:43:34.081Z,99.90
2018-04-08T10:46:08.914Z,99.90
2018-04-08T10:48:43.762Z,99.90
2018-04-08T10:51:18.590Z,99.90
2018-04-08T10:53:53.492Z,99.90
2018-04-08T10:56:28.354Z,99.90
2018-04-08T10:59:03.116Z,99.90
2018-04-08T11:01:38.767Z,99.90
2018-04-08T11:04:13.772Z,99.90
2018-04-08T11:06:48.476Z,99.90
2018-04-08T11:09:23.865Z,99.90
2018-04-08T11:11:59.596Z,99.90
2018-04-08T11:14:34.722Z,99.90
2018-04-08T11:17:11.000Z,99.90
2018-04-08T11:19:46.842Z,99.90
2018-04-08T11:22:22.083Z,99.90
2018-04-08T11:24:56.914Z,99.90
2018-04-08T11:27:32.107Z,99.90
2018-04-08T11:30:08.008Z,99.90
2018-04-08T11:32:43.865Z,99.90
2018-04-08T11:35:19.101Z,99.90
2018-04-08T11:37:54.032Z,99.90
2018-04-08T11:40:29.066Z,99.90
2018-04-08T11:43:03.899Z,99.90
2018-04-08T11:45:38.933Z,99.90
2018-04-08T11:48:14.730Z,99.90
2018-04-08T11:50:50.437Z,99.90
2018-04-08T11:53:26.087Z,99.90
2018-04-08T11:56:01.375Z,99.90
2018-04-08T11:58:36.976Z,99.90
2018-04-08T12:01:12.831Z,99.90
2018-04-08T12:03:49.111Z,99.90
2018-04-08T12:06:24.539Z,99.90
2018-04-08T12:08:59.577Z,99.90
2018-04-08T12:11:34.502Z,99.90
2018-04-08T12:14:10.260Z,99.90
2018-04-08T12:16:45.086Z,99.90
2018-04-08T12:19:20.327Z,99.90
2018-04-08T12:21:55.364Z,99.90
2018-04-08T12:24:30.211Z,99.90
2018-04-08T12:27:05.638Z,99.90
2018-04-08T12:29:40.675Z,99.90
2018-04-08T12:32:15.721Z,99.90
2018-04-08T12:34:50.743Z,99.90
2018-04-08T12:37:26.193Z,99.90
2018-04-08T12:40:01.636Z,99.90
2018-04-08T12:42:36.462Z,99.90
2018-04-08T12:45:11.302Z,99.90
2018-04-08T12:47:47.147Z,99.90
2018-04-08T12:50:22.191Z,99.90
2018-04-08T12:52:58.037Z,99.90
2018-04-08T12:55:33.833Z,99.90
2018-04-08T12:58:08.925Z,99.90
2018-04-08T13:00:44.779Z,99.90
2018-04-08T13:03:19.863Z,99.90
2018-04-08T13:05:55.667Z,99.90
2018-04-08T13:08:30.498Z,99.90
2018-04-08T13:11:06.352Z,99.90
2018-04-08T13:13:41.387Z,99.90
2018-04-08T13:16:16.445Z,99.90
2018-04-08T13:18:54.121Z,99.90
2018-04-08T13:21:29.131Z,99.90
2018-04-08T13:24:05.020Z,99.70
2018-04-08T13:26:40.663Z,99.60
2018-04-08T13:29:15.754Z,99.90
2018-04-08T13:31:50.523Z,99.90
2018-04-08T13:34:25.558Z,99.90
2018-04-08T13:37:00.400Z,99.90
2018-04-08T13:39:37.277Z,99.90
2018-04-08T13:42:12.506Z,99.90
2018-04-08T13:44:47.339Z,99.90
2018-04-08T13:47:22.043Z,99.90
2018-04-08T13:49:57.106Z,99.90
2018-04-08T13:52:33.061Z,99.90
2018-04-08T13:55:08.573Z,99.90
2018-04-08T13:57:43.436Z,99.90
2018-04-08T14:00:18.476Z,99.90
2018-04-08T14:02:53.205Z,99.90
2018-04-08T14:05:28.397Z,99.90
2018-04-08T14:08:03.783Z,99.90
2018-04-08T14:10:38.816Z,99.90
2018-04-08T14:13:13.852Z,99.90
2018-04-08T14:15:49.707Z,99.90
2018-04-08T14:18:24.538Z,99.90
2018-04-08T14:20:59.366Z,99.90
2018-04-08T14:23:34.403Z,99.90
2018-04-08T14:26:09.593Z,99.90
2018-04-08T14:28:45.290Z,99.90
2018-04-08T14:31:20.326Z,99.90
2018-04-08T14:33:56.185Z,99.90
2018-04-08T14:36:32.033Z,99.90
2018-04-08T14:39:07.693Z,99.90
2018-04-08T14:41:43.961Z,99.90
2018-04-08T14:44:19.403Z,99.90
2018-04-08T14:46:55.041Z,99.90
2018-04-08T14:49:30.074Z,99.90
2018-04-08T14:52:06.562Z,99.90
2018-04-08T14:54:41.578Z,99.90
2018-04-08T14:57:16.830Z,99.90
2018-04-08T14:59:52.264Z,99.90
2018-04-08T15:02:27.299Z,99.90
2018-04-08T15:05:03.156Z,99.90
2018-04-08T15:07:39.668Z,99.90
2018-04-08T15:10:16.093Z,99.90
2018-04-08T15:12:51.950Z,99.90
2018-04-08T15:15:27.597Z,99.90
2018-04-08T15:18:02.636Z,99.90
2018-04-08T15:20:38.996Z,99.90
2018-04-08T15:23:14.649Z,99.90
2018-04-08T15:25:50.296Z,99.90
2018-04-08T15:28:25.124Z,99.90
2018-04-08T15:31:00.164Z,99.90
2018-04-08T15:33:35.819Z,99.90
2018-04-08T15:36:10.846Z,99.90
2018-04-08T15:38:46.700Z,99.90
2018-04-08T15:41:22.501Z,99.90
2018-04-08T15:43:59.212Z,99.90
2018-04-08T15:46:35.125Z,99.90
2018-04-08T15:49:10.916Z,99.90
2018-04-08T15:51:46.586Z,99.90
2018-04-08T15:54:21.623Z,99.90
2018-04-08T15:56:56.564Z,99.90
2018-04-08T15:59:32.206Z,99.90
2018-04-08T16:02:08.259Z,99.90
2018-04-08T16:04:44.121Z,99.90
2018-04-08T16:07:19.870Z,99.90
2018-04-08T16:09:55.109Z,99.90
2018-04-08T16:12:30.968Z,99.70
2018-04-08T16:15:06.817Z,99.90
2018-04-08T16:17:42.462Z,99.90
2018-04-08T16:20:17.606Z,99.90
2018-04-08T16:22:52.432Z,99.70
2018-04-08T16:25:29.046Z,99.90
2018-04-08T16:28:03.933Z,99.90
2018-04-08T16:30:40.754Z,99.90
2018-04-08T16:33:16.464Z,99.50
2018-04-08T16:35:51.705Z,99.40
2018-04-08T16:38:27.146Z,99.70
2018-04-08T16:41:02.595Z,99.70
2018-04-08T16:43:37.630Z,99.60
2018-04-08T16:46:12.870Z,99.90
2018-04-08T16:48:49.480Z,99.90
2018-04-08T16:51:24.516Z,99.90
2018-04-08T16:54:00.426Z,99.90
2018-04-08T16:56:36.283Z,99.90
2018-04-08T16:59:11.380Z,99.90
2018-04-08T17:01:46.354Z,99.90
2018-04-08T17:04:22.000Z,99.70
2018-04-08T17:06:56.841Z,99.90
2018-04-08T17:09:31.766Z,99.60
2018-04-08T17:12:06.796Z,99.60
2018-04-08T17:14:41.427Z,99.20
2018-04-08T17:17:17.586Z,99.50
2018-04-08T17:19:52.761Z,99.40
2018-04-08T17:22:28.476Z,99.10
2018-04-08T17:25:03.722Z,99.00
2018-04-08T17:27:38.751Z,99.10
2018-04-08T17:30:13.586Z,99.40
2018-04-08T17:32:48.820Z,99.20
2018-04-08T17:35:24.679Z,99.10
2018-04-08T17:38:00.270Z,99.00
2018-04-08T17:40:36.968Z,99.10
2018-04-08T17:43:12.650Z,99.00
2018-04-08T17:45:47.479Z,98.40
2018-04-08T17:48:22.512Z,98.10
2018-04-08T17:50:57.345Z,97.90
2018-04-08T17:53:32.998Z,98.10
2018-04-08T17:56:08.028Z,98.00
2018-04-08T17:58:43.063Z,98.30
2018-04-08T18:01:19.535Z,98.10
2018-04-08T18:03:54.571Z,98.10
2018-04-08T18:06:29.602Z,98.10
2018-04-08T18:09:04.638Z,98.20
2018-04-08T18:11:39.679Z,98.30
2018-04-08T18:14:14.379Z,98.00
2018-04-08T18:16:50.360Z,98.20
2018-04-08T18:19:25.598Z,98.20
2018-04-08T18:22:00.426Z,97.90
2018-04-08T18:24:35.261Z,97.90
2018-04-08T18:27:10.910Z,97.70
2018-04-08T18:29:45.738Z,97.90
2018-04-08T18:32:21.128Z,97.80
2018-04-08T18:34:56.629Z,97.50
2018-04-08T18:37:31.679Z,97.60
2018-04-08T18:40:06.697Z,97.70
2018-04-08T18:42:41.537Z,97.60
2018-04-08T18:45:16.398Z,97.60
2018-04-08T18:47:52.219Z,97.40
2018-04-08T18:50:27.460Z,97.30
2018-04-08T18:53:02.292Z,97.50
2018-04-08T18:55:37.458Z,97.70
2018-04-08T18:58:12.357Z,97.60
2018-04-08T19:00:47.799Z,97.80
2018-04-08T19:03:22.730Z,97.40
2018-04-08T19:05:57.713Z,97.40
2018-04-08T19:08:32.594Z,98.00
2018-04-08T19:11:07.837Z,97.90
2018-04-08T19:13:44.306Z,98.20
2018-04-08T19:16:25.073Z,98.10
2018-04-08T19:19:00.111Z,97.80
2018-04-08T19:21:34.937Z,98.00
2018-04-08T19:24:09.767Z,98.00
2018-04-08T19:26:44.600Z,99.90
2018-04-08T19:29:19.838Z,99.90
2018-04-08T19:31:54.670Z,99.90
2018-04-08T19:34:29.908Z,99.90
2018-04-08T19:37:05.562Z,99.90
2018-04-08T19:39:41.822Z,99.90
2018-04-08T19:42:17.267Z,99.90
2018-04-08T19:44:52.508Z,99.80
2018-04-08T19:47:28.159Z,99.80
2018-04-08T19:50:04.009Z,99.90
2018-04-08T19:52:39.679Z,99.90
2018-04-08T19:55:14.490Z,99.90
2018-04-08T19:57:50.756Z,99.90
2018-04-08T20:00:26.202Z,99.90
2018-04-08T20:03:01.940Z,99.90
2018-04-08T20:05:36.780Z,99.90
2018-04-08T20:08:11.616Z,99.90
2018-04-08T20:10:46.446Z,99.90
2018-04-08T20:13:21.498Z,99.90
2018-04-08T20:15:57.537Z,99.70
2018-04-08T20:18:33.184Z,99.50
2018-04-08T20:21:09.042Z,99.90
2018-04-08T20:23:44.073Z,99.90
2018-04-08T20:26:18.904Z,99.90
2018-04-08T20:28:53.947Z,99.90
2018-04-08T20:31:28.977Z,99.90
2018-04-08T20:34:04.830Z,99.90
2018-04-08T20:36:39.662Z,99.90
2018-04-08T20:39:14.703Z,99.90
2018-04-08T20:41:49.692Z,99.90
2018-04-08T20:44:24.776Z,99.90
2018-04-08T20:47:00.375Z,99.90
2018-04-08T20:49:35.799Z,99.90
2018-04-08T20:52:12.229Z,99.90
2018-04-08T20:54:51.049Z,99.90
2018-04-08T20:57:26.241Z,99.90
2018-04-08T21:00:02.173Z,99.90
2018-04-08T21:02:38.775Z,99.90
2018-04-08T21:05:14.477Z,99.90
2018-04-08T21:07:49.296Z,99.90
2018-04-08T21:10:24.948Z,99.90
2018-04-08T21:12:59.813Z,99.90
2018-04-08T21:15:34.813Z,99.90
2018-04-08T21:18:09.641Z,99.90
2018-04-08T21:20:44.477Z,99.90
2018-04-08T21:23:20.124Z,99.90
2018-04-08T21:25:55.773Z,99.90
2018-04-08T21:28:31.424Z,99.90
2018-04-08T21:31:06.664Z,99.90
2018-04-08T21:33:42.314Z,99.90
2018-04-08T21:36:17.148Z,99.90
2018-04-08T21:38:52.950Z,99.90
2018-04-08T21:41:28.642Z,99.90
2018-04-08T21:44:03.889Z,99.90
2018-04-08T21:46:39.549Z,99.90
2018-04-08T21:49:14.568Z,99.90
2018-04-08T21:51:50.216Z,99.90
2018-04-08T21:54:26.094Z,99.90
2018-04-08T21:57:01.924Z,99.90
2018-04-08T21:59:37.722Z,99.90
2018-04-08T22:02:13.369Z,99.90
2018-04-08T22:04:48.467Z,99.90
2018-04-08T22:07:23.624Z,99.90
2018-04-08T22:09:58.637Z,99.90
2018-04-08T22:12:33.478Z,99.90
2018-04-08T22:15:09.119Z,99.90
2018-04-08T22:17:44.155Z,99.90
2018-04-08T22:20:19.186Z,99.90
2018-04-08T22:22:55.822Z,99.90
2018-04-08T22:25:30.786Z,99.90
2018-04-08T22:28:06.748Z,99.90
2018-04-08T22:30:41.723Z,99.90
2018-04-08T22:33:17.849Z,99.90
2018-04-08T22:35:52.674Z,99.90
2018-04-08T22:38:28.324Z,99.90
2018-04-08T22:41:03.773Z,99.90
2018-04-08T22:43:39.010Z,99.90
2018-04-08T22:46:15.406Z,99.90
2018-04-08T22:48:51.595Z,99.90
2018-04-08T22:51:29.446Z,99.90
2018-04-08T22:54:04.905Z,99.90
2018-04-08T22:56:39.712Z,99.90
2018-04-08T22:59:14.484Z,99.90
2018-04-08T23:01:49.372Z,99.90
2018-04-08T23:04:24.407Z,99.90
2018-04-08T23:07:00.775Z,99.90
2018-04-08T23:09:36.014Z,99.90
2018-04-08T23:12:11.469Z,99.90
2018-04-08T23:14:46.291Z,99.90
2018-04-08T23:17:21.266Z,99.90
2018-04-08T23:19:56.973Z,99.90
2018-04-08T23:22:31.719Z,99.90
2018-04-08T23:25:06.885Z,99.90
2018-04-08T23:27:41.992Z,99.90
2018-04-08T23:30:18.567Z,99.90
2018-04-08T23:32:54.109Z,99.90
2018-04-08T23:35:29.554Z,99.90
2018-04-08T23:38:06.228Z,99.90
2018-04-08T23:40:42.081Z,99.90
2018-04-08T23:43:16.911Z,99.90
2018-04-08T23:45:51.948Z,99.90
2018-04-08T23:48:27.593Z,99.90
2018-04-08T23:51:02.629Z,99.90
2018-04-08T23:53:37.460Z,99.90
2018-04-08T23:56:12.392Z,99.90
2018-04-08T23:58:48.251Z,99.90
